< < Back
Terminal Aerodrome Forecast


Current Version              Previous Versions:   1  2  3  4  5  6  7  8  9  

Terminal Aerodrome Forecast

737
FTUS42 KGSP 221700
TAFGSP
TAF
KGSP 221736Z 2218/2318 26008KT P6SM VCSH BKN060
     FM222000 29005KT P6SM -SHRA VCTS OVC045CB
     FM222200 29004KT P6SM BKN045
     FM230500 32007KT P6SM FEW100
     FM231500 35011KT P6SM SKC=



Latest METAR

212
SAUS70 KWBC 231400
MTRGSP
METAR KGSP 231353Z 32007KT 10SM CLR 18/02 A2989 RMK AO2 SLP115
T01830017


USA.gov is the U.S. government's official web portal to all federal, state and local government web resources and services.